Wetterstation Badenhausen
Wetterdaten: Jahr 2010
Datum Temp. Auen. Bodentemp. Sonnentemp. Feuchte 2 Luftfeuchte Luftdruck Regen Wind Richtung Sonnenschein Helligkeit Solar Taupunkt Windchill
01.01.2010 -2,4 C -2,3 C -2,3 C 86 % 81 % 999,9 hPa 1,1 l/m 3,2 km/h (1 Bft) W 0,00 h 2,88 klux 3 W/m -5,9 C -3,4 C
02.01.2010 -3,8 C -3,6 C -3,3 C 86 % 84 % 1016,2 hPa 1,4 l/m 6,6 km/h (2 Bft) W 0,00 h 5,32 klux 5 W/m -6,8 C -4,7 C
03.01.2010 -4,0 C -3,8 C -3,6 C 86 % 84 % 1019,0 hPa 3,6 l/m 5,7 km/h (2 Bft) W 0,22 h 5,80 klux 5 W/m -6,9 C -6,0 C
04.01.2010 -5,9 C -5,8 C -5,5 C 85 % 81 % 1015,6 hPa 0,0 l/m 4,9 km/h (1 Bft) W 0,00 h 4,74 klux 4 W/m -9,9 C -7,6 C
05.01.2010 -10,3 C -10,4 C -9,5 C 77 % 78 % 1008,3 hPa 0,0 l/m 3,3 km/h (1 Bft) W 6,90 h 15,0 klux 13 W/m -15,6 C -10,5 C
06.01.2010 -11,1 C -11,6 C -9,3 C 80 % 76 % 1005,5 hPa 0,0 l/m 0,0 km/h (0 Bft) N 3,00 h 11,3 klux 10 W/m -15,9 C -9,3 C
07.01.2010 -5,9 C -5,7 C -5,8 C 83 % 82 % 1012,5 hPa 0,0 l/m 0,0 km/h (0 Bft) SO 0,00 h 6,35 klux 6 W/m -9,8 C -5,8 C
08.01.2010 -6,4 C -6,5 C -5,8 C 82 % 80 % 1019,7 hPa 0,0 l/m 3,9 km/h (1 Bft) W-NW 0,20 h 8,28 klux 7 W/m -10,6 C -6,8 C
09.01.2010 -3,3 C -3,5 C -2,9 C 86 % 79 % 1014,1 hPa 1,8 l/m 14,0 km/h (3 Bft) W-NW 0,00 h 3,61 klux 3 W/m -7,3 C -7,4 C
10.01.2010 -3,3 C -3,2 C -2,9 C 82 % 80 % 1015,1 hPa 0,7 l/m 5,2 km/h (1 Bft) NW 0,00 h 5,62 klux 5 W/m -7,4 C -4,3 C
11.01.2010 -4,3 C -3,9 C -3,7 C 80 % 80 % 1017,7 hPa 0,0 l/m 2,4 km/h (1 Bft) NW 0,00 h 6,50 klux 6 W/m -8,5 C -4,5 C
12.01.2010 -6,3 C -5,5 C -6,3 C 78 % 79 % 1016,6 hPa 0,0 l/m 0,4 km/h (0 Bft) NW 0,10 h 8,06 klux 8 W/m -11,1 C -6,3 C
13.01.2010 -6,4 C -7,3 C -5,6 C 81 % 77 % 1011,0 hPa 0,0 l/m 7,3 km/h (2 Bft) SO 4,52 h 12,5 klux 12 W/m -11,1 C -8,0 C
14.01.2010 -1,1 C -1,2 C -0,8 C 82 % 80 % 1012,6 hPa 0,0 l/m 0,7 km/h (0 Bft) SO 0,05 h 8,63 klux 9 W/m -5,1 C -0,8 C
15.01.2010 -0,9 C -1,0 C -0,8 C 83 % 82 % 1024,9 hPa 0,0 l/m 5,3 km/h (1 Bft) SO 0,00 h 5,88 klux 6 W/m -4,5 C -2,6 C
16.01.2010 -2,0 C -3,1 C -1,8 C 83 % 81 % 1019,3 hPa 0,0 l/m 21,2 km/h (4 Bft) SO 0,13 h 5,27 klux 6 W/m -6,0 C -7,7 C
17.01.2010 1,1 C 0,6 C 1,3 C 88 % 87 % 1014,4 hPa 4,7 l/m 4,7 km/h (1 Bft) SO 0,00 h 4,63 klux 5 W/m -1,0 C 0,4 C
18.01.2010 1,7 C 1,0 C 2,8 C 90 % 87 % 1023,9 hPa 4,0 l/m 0,2 km/h (0 Bft) O-SO 0,00 h 6,26 klux 6 W/m -0,4 C 2,8 C
19.01.2010 1,3 C 1,0 C 1,9 C 90 % 88 % 1021,1 hPa 13,0 l/m 0,0 km/h (0 Bft) SO 0,10 h 5,78 klux 6 W/m -0,2 C 1,9 C
20.01.2010 1,3 C 1,2 C 1,6 C 90 % 84 % 1017,8 hPa 0,0 l/m 3,5 km/h (1 Bft) SO 0,10 h 8,18 klux 9 W/m -1,2 C 0,8 C
21.01.2010 -4,0 C -3,0 C -4,0 C 88 % 83 % 1025,4 hPa 0,0 l/m 6,7 km/h (2 Bft) O-SO 0,00 h 5,89 klux 6 W/m -7,8 C -6,0 C
22.01.2010 -6,3 C -6,0 C -5,9 C 85 % 78 % 1029,2 hPa 0,0 l/m 5,7 km/h (2 Bft) O-SO 4,63 h 14,3 klux 15 W/m -11,0 C -8,2 C
23.01.2010 -5,8 C -5,5 C -5,6 C 84 % 80 % 1026,3 hPa 0,0 l/m 4,1 km/h (1 Bft) S-SW 0,77 h 8,79 klux 10 W/m -10,1 C -6,3 C
24.01.2010 -4,2 C -4,1 C -4,0 C 82 % 77 % 1026,4 hPa 0,0 l/m 10,0 km/h (2 Bft) S-SW 0,00 h 7,55 klux 8 W/m -9,4 C -8,1 C
25.01.2010 -6,6 C -5,8 C -5,5 C 79 % 77 % 1031,8 hPa 0,0 l/m 9,1 km/h (2 Bft) W-NW 1,20 h 10,0 klux 11 W/m -11,5 C -9,5 C
26.01.2010 -11,9 C -11,7 C -11,4 C 75 % 76 % 1040,7 hPa 0,0 l/m 4,3 km/h (1 Bft) W-NW 6,10 h 15,4 klux 17 W/m -17,7 C -13,7 C
27.01.2010 -7,0 C -6,7 C -6,6 C 78 % 77 % 1019,5 hPa 0,4 l/m 5,4 km/h (1 Bft) SO 0,00 h 6,46 klux 7 W/m -12,7 C -9,0 C
28.01.2010 0,8 C 0,6 C 1,0 C 85 % 84 % 999,1 hPa 5,0 l/m 6,2 km/h (2 Bft) W-SW 0,00 h 6,22 klux 8 W/m -2,6 C -0,8 C
29.01.2010 -0,0 C 0,2 C -0,0 C 87 % 90 % 983,3 hPa 3,2 l/m 3,7 km/h (1 Bft) SO 0,00 h 5,15 klux 6 W/m -2,2 C -1,1 C
30.01.2010 -3,2 C -2,5 C -2,7 C 78 % 80 % 993,8 hPa 0,7 l/m 1,8 km/h (1 Bft) W-NW 0,00 h 8,22 klux 10 W/m -7,9 C -3,3 C
31.01.2010 -2,0 C -2,7 C -1,8 C 82 % 78 % 1003,2 hPa 1,4 l/m 5,0 km/h (1 Bft) SO 0,45 h 9,0 klux 11 W/m -6,7 C -3,5 C
01.02.2010 -0,6 C -0,7 C -0,5 C 82 % 83 % 1007,7 hPa 0,7 l/m 8,6 km/h (2 Bft) SO 0,05 h 7,77 klux 10 W/m -4,3 C -2,6 C
02.02.2010 -1,0 C -1,6 C -0,6 C 84 % 84 % 1003,9 hPa 3,2 l/m 15,9 km/h (3 Bft) SO 0,00 h 6,64 klux 9 W/m -4,1 C -4,8 C
03.02.2010 -0,8 C -0,3 C -0,7 C 84 % 88 % 1010,0 hPa 4,0 l/m 3,7 km/h (1 Bft) SW 2,30 h 11,8 klux 15 W/m -4,0 C -1,7 C
04.02.2010 0,9 C 0,3 C 1,1 C 87 % 88 % 1013,9 hPa 1,1 l/m 2,5 km/h (1 Bft) SO 0,00 h 7,35 klux 10 W/m -1,4 C 0,5 C
05.02.2010 -0,6 C -0,4 C -0,7 C 87 % 87 % 1010,0 hPa 0,0 l/m 1,4 km/h (1 Bft) SO 0,80 h 11,7 klux 16 W/m -3,2 C -1,1 C
06.02.2010 0,4 C 0,3 C 1,8 C 87 % 84 % 1015,3 hPa 0,0 l/m 0,1 km/h (0 Bft) W-NW 0,00 h 6,98 klux 9 W/m -2,3 C 1,8 C
07.02.2010 -4,0 C -3,1 C -3,6 C 82 % 83 % 1022,1 hPa 0,0 l/m 9,3 km/h (2 Bft) W-NW 0,00 h 9,7 klux 14 W/m -7,5 C -7,1 C
08.02.2010 -6,0 C -5,3 C -5,3 C 78 % 73 % 1013,3 hPa 0,0 l/m 5,2 km/h (1 Bft) SO 0,80 h 12,8 klux 18 W/m -11,5 C -7,6 C
09.02.2010 -5,9 C -5,6 C -4,9 C 77 % 76 % 1007,6 hPa 0,0 l/m 0,5 km/h (0 Bft) S-SW 0,05 h 11,3 klux 16 W/m -10,8 C -4,9 C
10.02.2010 -6,2 C -5,7 C -5,6 C 77 % 77 % 1009,7 hPa 0,0 l/m 11,4 km/h (2 Bft) W-NW 0,00 h 11,2 klux 16 W/m -11,3 C -10,3 C
11.02.2010 -3,4 C -3,2 C -2,9 C 81 % 82 % 1012,5 hPa 2,9 l/m 15,1 km/h (3 Bft) NW 0,00 h 5,79 klux 9 W/m -7,2 C -8,0 C
12.02.2010 -3,9 C -3,3 C -3,2 C 84 % 86 % 1016,2 hPa 4,7 l/m 20,9 km/h (4 Bft) W-NW 0,85 h 11,9 klux 18 W/m -6,8 C -9,3 C
13.02.2010 -5,9 C -4,8 C -5,1 C 82 % 85 % 1016,1 hPa 0,7 l/m 4,3 km/h (1 Bft) W-NW 0,82 h 12,1 klux 18 W/m -9,5 C -6,8 C
14.02.2010 -6,9 C -7,2 C -5,1 C 78 % 79 % 1014,4 hPa 0,0 l/m 0,9 km/h (0 Bft) SO 5,10 h 17,5 klux 26 W/m -11,5 C -5,1 C
15.02.2010 -5,0 C -5,4 C -4,3 C 77 % 75 % 1009,1 hPa 0,0 l/m 6,2 km/h (2 Bft) SO 3,35 h 17,7 klux 29 W/m -10,7 C -6,7 C
16.02.2010 -7,1 C -7,3 C -6,3 C 74 % 77 % 1004,4 hPa 0,0 l/m 5,2 km/h (1 Bft) SO 5,25 h 19,8 klux 31 W/m -12,6 C -8,0 C
17.02.2010 -3,9 C -5,0 C -1,0 C 76 % 66 % 997,0 hPa 0,0 l/m 0,0 km/h (0 Bft) N 7,40 h 23,6 klux 37 W/m -10,4 C -1,0 C
18.02.2010 1,1 C 0,7 C 1,7 C 81 % 82 % 997,8 hPa 0,7 l/m 6,3 km/h (2 Bft) SO 0,00 h 7,47 klux 12 W/m -2,7 C -0,1 C
19.02.2010 3,0 C 2,1 C 3,4 C 83 % 76 % 993,3 hPa 0,4 l/m 3,8 km/h (1 Bft) SO 1,30 h 12,1 klux 20 W/m -2,1 C 2,5 C
20.02.2010 -0,0 C 0,4 C 0,1 C 75 % 76 % 997,9 hPa 0,0 l/m 7,3 km/h (2 Bft) SO 2,83 h 16,3 klux 26 W/m -5,0 C -1,8 C
21.02.2010 0,7 C 0,3 C 1,1 C 81 % 77 % 1000,1 hPa 3,6 l/m 9,5 km/h (2 Bft) SO 2,45 h 15,8 klux 26 W/m -3,8 C -1,4 C
22.02.2010 4,0 C 3,2 C 4,4 C 82 % 79 % 990,7 hPa 2,2 l/m 16,4 km/h (3 Bft) SO 0,20 h 10,2 klux 18 W/m -0,1 C 1,1 C
23.02.2010 2,1 C 2,0 C 2,5 C 86 % 88 % 995,9 hPa 7,6 l/m 4,4 km/h (1 Bft) W-NW 0,00 h 8,90 klux 16 W/m -0,2 C 1,7 C
24.02.2010 1,6 C 1,3 C 3,5 C 87 % 87 % 1000,3 hPa 5,0 l/m 0,0 km/h (0 Bft) SO 2,55 h 14,6 klux 26 W/m -0,6 C 3,5 C
25.02.2010 6,7 C 4,8 C 7,3 C 86 % 74 % 996,1 hPa 1,8 l/m 14,3 km/h (3 Bft) SO 0,05 h 10,1 klux 19 W/m 1,2 C 4,8 C
26.02.2010 6,1 C 5,8 C 6,1 C 85 % 82 % 993,6 hPa 6,5 l/m 7,3 km/h (2 Bft) SO 1,23 h 11,3 klux 20 W/m 2,3 C 5,0 C
27.02.2010 5,4 C 4,2 C 5,9 C 80 % 69 % 1000,5 hPa 0,0 l/m 11,2 km/h (2 Bft) SO 1,73 h 12,2 klux 23 W/m -1,1 C 3,5 C
28.02.2010 7,0 C 6,6 C 7,1 C 74 % 73 % 986,8 hPa 5,8 l/m 25,3 km/h (4 Bft) SO 0,75 h 8,13 klux 17 W/m 0,7 C 4,2 C
01.03.2010 3,3 C 2,8 C 4,0 C 71 % 71 % 1008,1 hPa 1,4 l/m 9,4 km/h (2 Bft) SW 2,95 h 13,9 klux 25 W/m -3,1 C 2,2 C
02.03.2010 1,0 C 1,6 C 2,0 C 64 % 74 % 1020,3 hPa 0,0 l/m 4,3 km/h (1 Bft) W-SW 4,40 h 21,4 klux 43 W/m -4,9 C 2,0 C
03.03.2010 0,6 C 1,0 C 1,0 C 67 % 78 % 1020,6 hPa 0,7 l/m 2,2 km/h (1 Bft) W-SW 1,55 h 14,7 klux 29 W/m -4,6 C 0,5 C
04.03.2010 -2,2 C -2,7 C -2,7 C 67 % 80 % 1019,3 hPa 0,0 l/m 6,1 km/h (2 Bft) W-NW 1,85 h 15,9 klux 34 W/m -7,5 C -3,9 C
05.03.2010 -1,5 C -0,9 C -0,2 C 62 % 73 % 1019,3 hPa 2,2 l/m 14,4 km/h (3 Bft) W-NW 7,22 h 28,4 klux 57 W/m -8,0 C -4,5 C
06.03.2010 -2,4 C -2,0 C -2,3 C 68 % 75 % 1024,5 hPa 3,6 l/m 12,6 km/h (2 Bft) N 5,93 h 25,4 klux 53 W/m -7,9 C -6,4 C
07.03.2010 -7,2 C -7,4 C -7,1 C 55 % 66 % 1033,1 hPa 0,0 l/m 4,9 km/h (1 Bft) NW 10,35 h 33,1 klux 68 W/m -15,6 C -8,2 C
08.03.2010 -3,5 C -2,9 C -3,0 C 60 % 70 % 1027,4 hPa 0,0 l/m 3,6 km/h (1 Bft) N-NO 4,15 h 22,2 klux 46 W/m -10,0 C -4,0 C
09.03.2010 -5,1 C -5,2 C -3,4 C 53 % 63 % 1029,1 hPa 0,0 l/m 2,6 km/h (1 Bft) N-NO 10,70 h 31,6 klux 67 W/m -13,4 C -3,8 C
10.03.2010 -1,0 C -1,7 C -0,4 C 59 % 66 % 1025,1 hPa 0,0 l/m 7,9 km/h (2 Bft) N-NO 10,35 h 32,4 klux 70 W/m -8,7 C -2,7 C
11.03.2010 -2,7 C -2,4 C -1,9 C 76 % 81 % 1018,4 hPa 0,0 l/m 13,6 km/h (3 Bft) W-NW 8,00 h 28,9 klux 64 W/m -6,2 C -5,1 C
12.03.2010 1,8 C 1,5 C 2,7 C 75 % 77 % 1017,5 hPa 3,6 l/m 4,3 km/h (1 Bft) W-SW 1,02 h 15,2 klux 36 W/m -2,7 C 1,7 C
13.03.2010 3,1 C 2,8 C 3,2 C 81 % 83 % 1019,9 hPa 1,8 l/m 6,3 km/h (2 Bft) W-SW 0,00 h 6,44 klux 15 W/m -0,7 C 1,5 C
14.03.2010 3,1 C 3,0 C 3,3 C 82 % 83 % 1017,1 hPa 8,3 l/m 16,5 km/h (3 Bft) SW 0,00 h 5,18 klux 12 W/m -1,0 C -0,0 C
15.03.2010 2,8 C 3,0 C 2,9 C 82 % 88 % 1017,6 hPa 9,4 l/m 6,6 km/h (2 Bft) W-SW 0,30 h 8,08 klux 18 W/m -0,3 C 1,2 C
16.03.2010 1,8 C 1,9 C 2,2 C 79 % 81 % 1025,4 hPa 3,6 l/m 5,3 km/h (1 Bft) W-NW 0,00 h 8,13 klux 20 W/m -2,2 C 1,2 C
17.03.2010 5,0 C 4,8 C 6,1 C 67 % 73 % 1023,6 hPa 0,0 l/m 4,0 km/h (1 Bft) SO 4,08 h 20,8 klux 50 W/m -1,1 C 6,1 C
18.03.2010 7,4 C 7,0 C 9,0 C 62 % 66 % 1020,8 hPa 0,0 l/m 4,1 km/h (1 Bft) SO 9,17 h 31,2 klux 76 W/m -0,5 C 8,6 C
19.03.2010 9,9 C 9,0 C 10,8 C 67 % 66 % 1015,8 hPa 0,0 l/m 4,6 km/h (1 Bft) SO 0,00 h 8,04 klux 19 W/m 2,8 C 10,6 C
20.03.2010 12,9 C 12,9 C 13,1 C 75 % 78 % 1008,6 hPa 1,4 l/m 16,4 km/h (3 Bft) SO 0,55 h 9,4 klux 24 W/m 7,8 C 12,6 C
21.03.2010 8,2 C 8,6 C 7,9 C 80 % 89 % 1014,9 hPa 7,6 l/m 0,3 km/h (0 Bft) SO 0,00 h 5,53 klux 14 W/m 5,2 C 7,9 C
22.03.2010 6,7 C 6,6 C 6,9 C 78 % 81 % 1021,4 hPa 0,4 l/m 4,9 km/h (1 Bft) SO 1,40 h 20,1 klux 54 W/m 2,3 C 6,9 C
23.03.2010 5,9 C 5,4 C 7,5 C 67 % 75 % 1019,7 hPa 0,0 l/m 0,3 km/h (0 Bft) SW 5,15 h 22,4 klux 58 W/m 0,2 C 7,5 C
24.03.2010 7,9 C 7,3 C 8,4 C 63 % 73 % 1013,1 hPa 0,0 l/m 4,9 km/h (1 Bft) SO 8,85 h 33,0 klux 75 W/m 0,3 C 8,4 C
25.03.2010 13,4 C 11,6 C 15,0 C 56 % 55 % 1007,8 hPa 0,0 l/m 6,0 km/h (2 Bft) SO 8,90 h 31,5 klux 83 W/m 2,9 C 15,0 C
26.03.2010 10,4 C 10,1 C 10,3 C 70 % 75 % 1005,0 hPa 9,4 l/m 5,7 km/h (2 Bft) SO 4,50 h 25,1 klux 72 W/m 5,1 C 10,3 C
27.03.2010 7,8 C 8,1 C 8,2 C 70 % 81 % 1005,2 hPa 2,5 l/m 0,1 km/h (0 Bft) SO 0,55 h 11,6 klux 32 W/m 4,9 C 8,2 C
28.03.2010 7,9 C 8,4 C 8,3 C 70 % 81 % 1007,0 hPa 8,3 l/m 4,0 km/h (1 Bft) SO 2,23 h 16,9 klux 46 W/m 4,5 C 8,3 C
29.03.2010 7,4 C 8,0 C 8,0 C 75 % 84 % 1005,2 hPa 10,4 l/m 4,3 km/h (1 Bft) SO 0,00 h 12,4 klux 37 W/m 4,9 C 8,0 C
30.03.2010 10,6 C 11,0 C 10,6 C 74 % 80 % 994,5 hPa 17,3 l/m 10,4 km/h (2 Bft) SO 2,65 h 20,7 klux 60 W/m 6,8 C 10,0 C
31.03.2010 7,4 C 7,4 C 7,7 C 63 % 65 % 1001,1 hPa 1,8 l/m 8,2 km/h (2 Bft) SO 3,77 h 24,1 klux 68 W/m 0,8 C 7,0 C
01.04.2010 4,7 C 4,6 C 5,1 C 61 % 66 % 1011,1 hPa 1,1 l/m 10,0 km/h (2 Bft) SO 2,20 h 17,2 klux 47 W/m -1,8 C 4,0 C
02.04.2010 4,2 C 4,7 C 4,8 C 55 % 64 % 1015,5 hPa 0,4 l/m 7,5 km/h (2 Bft) SO 11,87 h 36,3 klux 103 W/m -3,7 C 4,3 C
03.04.2010 9,1 C 9,2 C 9,1 C 59 % 66 % 1010,2 hPa 0,0 l/m 11,9 km/h (2 Bft) SO 1,47 h 20,3 klux 61 W/m 1,9 C 7,9 C
04.04.2010 7,7 C 8,1 C 7,5 C 69 % 80 % 1010,6 hPa 9,4 l/m 8,7 km/h (2 Bft) SO 1,83 h 17,3 klux 48 W/m 3,7 C 7,1 C
05.04.2010 6,7 C 7,2 C 7,9 C 62 % 66 % 1025,2 hPa 0,4 l/m 3,0 km/h (1 Bft) W-SW 0,90 h 11,9 klux 47 W/m 0,6 C 7,9 C
06.04.2010 10,0 C 9,3 C 10,2 C 55 % 57 % 1023,4 hPa 0,0 l/m 8,7 km/h (2 Bft) SO 11,47 h 29,9 klux 107 W/m 0,0 C 10,2 C
07.04.2010 9,7 C 10,2 C 9,9 C 48 % 61 % 1019,1 hPa 0,0 l/m 4,9 km/h (1 Bft) SO 11,75 h 38,4 klux 116 W/m 1,1 C 9,9 C
08.04.2010 8,9 C 10,0 C 9,7 C 64 % 77 % 1024,5 hPa 0,4 l/m 18,6 km/h (3 Bft) W-NW 3,13 h 21,9 klux 68 W/m 4,8 C 7,9 C
09.04.2010 8,5 C 9,1 C 9,1 C 57 % 68 % 1029,9 hPa 0,0 l/m 6,5 km/h (2 Bft) W-NW 3,30 h 25,1 klux 83 W/m 2,2 C 8,8 C
10.04.2010 6,1 C 6,4 C 6,5 C 66 % 78 % 1028,3 hPa 1,4 l/m 14,8 km/h (3 Bft) W-NW 0,68 h 13,3 klux 43 W/m 2,6 C 4,0 C
11.04.2010 5,7 C 6,2 C 5,8 C 68 % 75 % 1024,5 hPa 1,8 l/m 13,6 km/h (3 Bft) N-NO 1,68 h 20,7 klux 68 W/m 1,8 C 3,1 C
12.04.2010 7,3 C 6,9 C 7,6 C 73 % 76 % 1020,3 hPa 1,1 l/m 16,2 km/h (3 Bft) N-NO 1,25 h 15,0 klux 47 W/m 4,0 C 4,9 C
13.04.2010 10,4 C 9,9 C 10,7 C 58 % 62 % 1016,5 hPa 0,0 l/m 10,6 km/h (2 Bft) N-NO 8,80 h 32,9 klux 108 W/m 2,6 C 9,9 C
14.04.2010 8,1 C 8,4 C 8,9 C 60 % 72 % 1016,7 hPa 0,0 l/m 9,7 km/h (2 Bft) N-NO 4,63 h 25,5 klux 87 W/m 2,6 C 8,0 C
15.04.2010 9,6 C 8,9 C 9,4 C 55 % 60 % 1017,3 hPa 0,0 l/m 7,2 km/h (2 Bft) W-NW 1,03 h 17,5 klux 61 W/m 1,1 C 8,7 C
16.04.2010 5,6 C 6,7 C 6,3 C 57 % 67 % 1022,2 hPa 0,0 l/m 10,2 km/h (2 Bft) W-NW 3,20 h 17,7 klux 56 W/m -0,1 C 5,0 C
17.04.2010 8,3 C 8,6 C 8,9 C 49 % 59 % 1020,8 hPa 0,0 l/m 1,3 km/h (1 Bft) SO 12,10 h 39,5 klux 131 W/m -1,7 C 8,9 C
18.04.2010 10,9 C 10,4 C 13,4 C 44 % 50 % 1012,1 hPa 0,0 l/m 0,2 km/h (0 Bft) SW 13,22 h 40,6 klux 135 W/m -0,4 C 13,4 C
19.04.2010 7,6 C 9,2 C 8,6 C 59 % 66 % 1015,2 hPa 0,0 l/m 12,0 km/h (2 Bft) W-NW 10,50 h 35,4 klux 121 W/m 1,4 C 7,7 C
20.04.2010 8,5 C 8,3 C 10,4 C 50 % 53 % 1013,3 hPa 0,0 l/m 4,0 km/h (1 Bft) W-SW 7,57 h 30,4 klux 109 W/m -2,3 C 9,9 C
21.04.2010 5,2 C 5,8 C 5,5 C 59 % 61 % 1015,9 hPa 0,0 l/m 9,7 km/h (2 Bft) W-SW 2,93 h 21,2 klux 73 W/m -2,3 C 3,7 C
22.04.2010 4,8 C 5,9 C 7,0 C 49 % 60 % 1016,7 hPa 0,0 l/m 2,1 km/h (1 Bft) SW 8,95 h 36,0 klux 130 W/m -3,6 C 7,0 C
23.04.2010 8,5 C 8,1 C 10,6 C 46 % 51 % 1016,4 hPa 0,0 l/m 1,5 km/h (1 Bft) NW 13,45 h 40,2 klux 142 W/m -16,7 C 10,6 C
24.04.2010 11,5 C 11,3 C 13,7 C 45 % 51 % 1020,8 hPa 0,0 l/m 0,1 km/h (0 Bft) SW 11,95 h 39,1 klux 138 W/m -14,9 C 13,7 C
25.04.2010 15,5 C 15,3 C 16,7 C 46 % 47 % 1021,5 hPa 0,0 l/m 5,8 km/h (2 Bft) SO 11,10 h 39,2 klux 142 W/m 1,9 C 16,7 C
26.04.2010 12,4 C 12,4 C 12,8 C 70 % 73 % 1022,2 hPa 4,0 l/m 1,7 km/h (1 Bft) W-SW 1,00 h 15,7 klux 60 W/m 8,0 C 12,8 C
27.04.2010 11,1 C 12,1 C 12,2 C 65 % 72 % 1026,4 hPa 0,0 l/m 2,8 km/h (1 Bft) W-SW 3,30 h 25,0 klux 91 W/m 5,2 C 11,8 C
28.04.2010 13,2 C 13,6 C 14,1 C 59 % 62 % 1022,9 hPa 0,0 l/m 3,8 km/h (1 Bft) SO 10,55 h 38,1 klux 142 W/m 4,2 C 14,1 C
29.04.2010 17,1 C 17,4 C 18,6 C 52 % 54 % 1010,9 hPa 0,0 l/m 5,8 km/h (2 Bft) SO 5,40 h 32,6 klux 126 W/m 6,5 C 18,6 C
30.04.2010 15,8 C 16,1 C 16,4 C 61 % 60 % 1007,4 hPa 0,0 l/m 9,8 km/h (2 Bft) W-SW 2,85 h 23,1 klux 85 W/m 7,5 C 16,4 C
01.05.2010 12,4 C 13,0 C 13,2 C 60 % 65 % 1009,2 hPa 0,0 l/m 5,1 km/h (1 Bft) S-SW 3,95 h 25,2 klux 99 W/m 5,2 C 13,2 C
02.05.2010 13,0 C 12,3 C 13,7 C 72 % 70 % 1008,9 hPa 0,7 l/m 2,1 km/h (1 Bft) SO 1,00 h 16,4 klux 65 W/m 7,2 C 13,4 C
03.05.2010 11,4 C 11,3 C 11,9 C 72 % 77 % 1011,0 hPa 6,1 l/m 3,0 km/h (1 Bft) W-NW 2,75 h 22,6 klux 92 W/m 7,1 C 11,9 C
04.05.2010 6,9 C 7,9 C 7,7 C 71 % 69 % 1019,1 hPa 4,3 l/m 9,8 km/h (2 Bft) NW 1,90 h 15,4 klux 57 W/m 1,9 C 7,0 C
05.05.2010 8,2 C 8,4 C 8,7 C 60 % 53 % 1015,4 hPa 0,0 l/m 10,4 km/h (2 Bft) N-NO 12,48 h 38,8 klux 145 W/m -1,0 C 8,1 C
06.05.2010 5,8 C 6,1 C 5,6 C 85 % 87 % 1004,1 hPa 19,1 l/m 9,1 km/h (2 Bft) W-NW 0,00 h 3,90 klux 16 W/m 4,2 C 3,7 C
07.05.2010 7,3 C 7,6 C 8,5 C 88 % 83 % 1006,0 hPa 1,1 l/m 0,3 km/h (0 Bft) W-NW 0,00 h 12,1 klux 51 W/m 5,3 C 8,5 C
08.05.2010 9,1 C 10,1 C 10,6 C 75 % 68 % 1009,9 hPa 0,0 l/m 0,2 km/h (0 Bft) SO 1,98 h 23,6 klux 92 W/m 3,6 C 10,6 C
09.05.2010 11,3 C 11,5 C 11,9 C 74 % 75 % 1008,0 hPa 0,7 l/m 0,2 km/h (0 Bft) O-SO 1,35 h 19,7 klux 81 W/m 6,5 C 11,9 C
10.05.2010 9,1 C 9,5 C 9,3 C 75 % 72 % 1008,7 hPa 0,0 l/m 11,5 km/h (2 Bft) NW 2,92 h 25,9 klux 109 W/m 4,1 C 8,6 C
11.05.2010 10,6 C 10,6 C 11,0 C 77 % 73 % 1007,0 hPa 0,0 l/m 7,3 km/h (2 Bft) W-NW 0,55 h 13,8 klux 53 W/m 6,0 C 11,0 C
12.05.2010 8,9 C 9,2 C 9,1 C 81 % 80 % 1007,4 hPa 0,0 l/m 3,5 km/h (1 Bft) S 0,00 h 5,94 klux 24 W/m 5,6 C 9,1 C
13.05.2010 7,9 C 8,0 C 8,4 C 82 % 77 % 1011,3 hPa 0,7 l/m 1,8 km/h (1 Bft) NW 0,00 h 8,93 klux 38 W/m 4,5 C 8,4 C
14.05.2010 8,4 C 8,6 C 8,6 C 80 % 76 % 1010,5 hPa 0,4 l/m 6,5 km/h (2 Bft) W-NW 0,00 h 13,2 klux 59 W/m 4,1 C 7,9 C
15.05.2010 5,7 C 6,4 C 5,8 C 87 % 85 % 1010,0 hPa 7,6 l/m 8,4 km/h (2 Bft) W-NW 0,00 h 12,3 klux 52 W/m 3,4 C 4,2 C
16.05.2010 9,2 C 10,6 C 10,0 C 70 % 67 % 1013,8 hPa 0,0 l/m 5,0 km/h (1 Bft) W-SW 4,10 h 23,2 klux 91 W/m 3,1 C 9,6 C
17.05.2010 10,3 C 11,0 C 11,0 C 70 % 72 % 1019,6 hPa 3,2 l/m 1,6 km/h (1 Bft) W-SW 2,20 h 20,2 klux 83 W/m 5,0 C 11,0 C
18.05.2010 9,8 C 9,6 C 10,8 C 71 % 64 % 1023,7 hPa 0,0 l/m 11,7 km/h (2 Bft) W 0,65 h 18,4 klux 81 W/m 3,0 C 10,1 C
19.05.2010 8,9 C 9,0 C 8,7 C 85 % 90 % 1023,3 hPa 26,6 l/m 9,0 km/h (2 Bft) W-NW 0,00 h 4,01 klux 17 W/m 7,4 C 7,3 C
20.05.2010 9,9 C 10,1 C 10,0 C 91 % 88 % 1027,3 hPa 8,3 l/m 4,9 km/h (1 Bft) W-NW 0,00 h 9,2 klux 39 W/m 8,4 C 9,7 C
21.05.2010 14,8 C 14,8 C 15,4 C 73 % 67 % 1026,1 hPa 0,0 l/m 6,7 km/h (2 Bft) W-NW 10,10 h 39,6 klux 170 W/m 7,1 C 15,0 C
22.05.2010 14,2 C 13,4 C 13,7 C 80 % 79 % 1023,3 hPa 0,0 l/m 7,6 km/h (2 Bft) NW 6,28 h 33,2 klux 147 W/m 9,9 C 13,7 C
23.05.2010 17,3 C 16,9 C 19,6 C 75 % 68 % 1018,8 hPa 0,0 l/m 2,7 km/h (1 Bft) NW 10,53 h 40,2 klux 174 W/m 11,5 C 19,6 C
24.05.2010 17,2 C 17,0 C 17,5 C 70 % 68 % 1009,3 hPa 5,0 l/m 15,3 km/h (3 Bft) W-NW 6,92 h 31,2 klux 138 W/m 10,4 C 17,5 C
25.05.2010 13,0 C 13,8 C 14,0 C 65 % 59 % 1010,4 hPa 0,0 l/m 14,8 km/h (3 Bft) NW 9,95 h 39,0 klux 173 W/m 5,2 C 14,0 C
26.05.2010 11,7 C 11,8 C 14,1 C 71 % 71 % 1007,2 hPa 2,9 l/m 8,8 km/h (2 Bft) SO 5,07 h 26,4 klux 112 W/m 6,8 C 14,1 C
27.05.2010 12,1 C 12,0 C 12,9 C 87 % 75 % 1008,9 hPa 0,0 l/m 3,4 km/h (1 Bft) W-NW 1,40 h 19,4 klux 82 W/m 8,6 C 12,4 C
28.05.2010 13,5 C 13,5 C 14,5 C 91 % 72 % 1012,9 hPa 1,4 l/m 2,4 km/h (1 Bft) W-SW 4,45 h 21,1 klux 87 W/m 8,6 C 14,5 C
29.05.2010 14,9 C 13,6 C 17,5 C 91 % 58 % 1015,6 hPa 0,0 l/m 3,2 km/h (1 Bft) SO 11,85 h 40,8 klux 180 W/m 6,0 C 17,5 C
30.05.2010 12,5 C 12,8 C 13,3 C 92 % 82 % 1004,8 hPa 11,5 l/m 8,9 km/h (2 Bft) SO 1,20 h 18,4 klux 83 W/m 9,9 C 13,3 C
31.05.2010 9,6 C 9,9 C 9,6 C 93 % 89 % 1011,2 hPa 9,4 l/m 9,3 km/h (2 Bft) W-SW 0,00 h 5,25 klux 22 W/m 8,4 C 8,4 C
01.06.2010 13,1 C 12,5 C 13,7 C 88 % 72 % 1012,4 hPa 0,0 l/m 16,6 km/h (3 Bft) NW 0,85 h 18,0 klux 82 W/m 8,7 C 13,7 C
02.06.2010 15,4 C 14,7 C 15,8 C 76 % 62 % 1015,1 hPa 0,0 l/m 16,1 km/h (3 Bft) NW 5,73 h 25,5 klux 110 W/m 7,9 C 15,8 C
03.06.2010 17,7 C 17,3 C 19,4 C 60 % 49 % 1018,0 hPa 0,0 l/m 10,1 km/h (2 Bft) NW 16,32 h 45,8 klux 202 W/m 6,8 C 19,4 C
04.06.2010 17,2 C 16,0 C 19,2 C 63 % 54 % 1019,8 hPa 0,0 l/m 8,5 km/h (2 Bft) NW 16,25 h 45,0 klux 198 W/m 7,8 C 19,2 C
05.06.2010 20,3 C 18,3 C 24,2 C 66 % 51 % 1017,3 hPa 0,0 l/m 0,2 km/h (0 Bft) W-NW 15,40 h 44,2 klux 195 W/m 9,7 C 24,2 C
06.06.2010 22,3 C 20,6 C 22,7 C 68 % 58 % 1009,7 hPa 0,0 l/m 8,3 km/h (2 Bft) SO 12,30 h 40,0 klux 180 W/m 12,3 C 22,7 C
07.06.2010 17,2 C 17,2 C 17,3 C 73 % 69 % 1009,3 hPa 2,2 l/m 2,1 km/h (1 Bft) SW 0,35 h 15,9 klux 73 W/m 11,2 C 17,3 C
08.06.2010 19,6 C 18,8 C 19,9 C 70 % 67 % 1006,6 hPa 0,7 l/m 4,9 km/h (1 Bft) SO 8,00 h 34,9 klux 160 W/m 12,0 C 19,9 C
09.06.2010 22,9 C 21,8 C 21,5 C 71 % 71 % 1005,6 hPa 16,9 l/m 5,3 km/h (1 Bft) SO 8,20 h 36,9 klux 168 W/m 15,2 C 21,5 C
10.06.2010 21,8 C 20,9 C 21,7 C 79 % 73 % 1004,9 hPa 7,6 l/m 3,1 km/h (1 Bft) SO 4,25 h 31,2 klux 143 W/m 16,1 C 21,7 C
11.06.2010 22,0 C 20,6 C 23,4 C 75 % 58 % 1004,9 hPa 7,6 l/m 11,4 km/h (2 Bft) S 8,58 h 34,9 klux 155 W/m 12,8 C 23,4 C
12.06.2010 14,2 C 14,2 C 13,7 C 81 % 83 % 1010,6 hPa 2,9 l/m 2,5 km/h (1 Bft) SO 0,00 h 5,54 klux 24 W/m 11,2 C 13,7 C
13.06.2010 13,1 C 12,6 C 13,2 C 80 % 66 % 1014,7 hPa 0,0 l/m 1,5 km/h (1 Bft) W 5,75 h 27,4 klux 119 W/m 7,4 C 13,2 C
14.06.2010 16,0 C 14,4 C 17,6 C 77 % 57 % 1015,8 hPa 0,0 l/m 0,0 km/h (0 Bft) N-NO 5,97 h 29,7 klux 138 W/m 7,9 C 17,6 C
15.06.2010 15,0 C 14,6 C 15,2 C 70 % 60 % 1021,0 hPa 0,0 l/m 14,8 km/h (3 Bft) NW 13,50 h 42,8 klux 194 W/m 6,4 C 15,2 C
16.06.2010 17,4 C 16,0 C 19,0 C 59 % 47 % 1020,8 hPa 0,0 l/m 9,9 km/h (2 Bft) NO 15,85 h 45,4 klux 203 W/m 6,3 C 19,0 C
17.06.2010 19,1 C 17,7 C 20,1 C 55 % 49 % 1015,8 hPa 0,0 l/m 8,3 km/h (2 Bft) N-NO 15,70 h 43,4 klux 195 W/m 7,7 C 20,1 C
18.06.2010 14,0 C 14,5 C 14,8 C 68 % 66 % 1009,8 hPa 0,0 l/m 24,6 km/h (4 Bft) W-NW 7,72 h 31,1 klux 139 W/m 8,3 C 14,8 C
19.06.2010 12,1 C 11,8 C 12,5 C 69 % 68 % 1006,1 hPa 0,0 l/m 7,2 km/h (2 Bft) W-SW 1,28 h 19,4 klux 93 W/m 5,6 C 12,1 C
20.06.2010 13,1 C 13,0 C 13,6 C 71 % 64 % 1012,4 hPa 0,0 l/m 0,0 km/h (0 Bft) W-SW 2,50 h 18,4 klux 78 W/m 6,7 C 13,6 C
21.06.2010 12,8 C 13,0 C 14,9 C 68 % 56 % 1019,6 hPa 0,4 l/m 2,2 km/h (1 Bft) W-NW 5,20 h 27,2 klux 115 W/m 5,7 C 14,9 C
22.06.2010 14,7 C 14,1 C 15,7 C 73 % 66 % 1022,3 hPa 0,0 l/m 0,3 km/h (0 Bft) W-NW 3,32 h 24,2 klux 104 W/m 8,4 C 15,7 C
23.06.2010 17,8 C 16,6 C 19,4 C 68 % 57 % 1020,8 hPa 0,0 l/m 0,3 km/h (0 Bft) W-NW 8,25 h 34,2 klux 156 W/m 8,7 C 19,4 C
24.06.2010 20,6 C 18,8 C 23,7 C 66 % 52 % 1016,2 hPa 0,0 l/m 2,9 km/h (1 Bft) W-NW 13,65 h 43,0 klux 194 W/m 10,4 C 23,7 C
25.06.2010 19,7 C 19,1 C 20,1 C 64 % 58 % 1014,2 hPa 0,0 l/m 4,7 km/h (1 Bft) W-NW 9,00 h 32,9 klux 148 W/m 10,4 C 20,1 C
26.06.2010 19,2 C 18,4 C 23,3 C 63 % 46 % 1016,8 hPa 0,0 l/m 4,6 km/h (1 Bft) W-NW 15,28 h 44,5 klux 197 W/m 9,0 C 23,3 C
27.06.2010 22,0 C 19,9 C 24,5 C 62 % 48 % 1018,9 hPa 0,0 l/m 2,5 km/h (1 Bft) S-SO 14,78 h 44,5 klux 199 W/m 10,2 C 24,5 C
28.06.2010 22,8 C 21,5 C 26,6 C 59 % 42 % 1017,3 hPa 0,0 l/m 2,7 km/h (1 Bft) SO 14,63 h 43,9 klux 197 W/m 10,1 C 26,6 C
29.06.2010 22,9 C 21,4 C 26,0 C 65 % 56 % 1016,6 hPa 0,0 l/m 3,0 km/h (1 Bft) W-SW 10,73 h 35,7 klux 165 W/m 13,6 C 26,0 C
30.06.2010 23,2 C 21,3 C 24,1 C 66 % 54 % 1017,3 hPa 0,0 l/m 2,6 km/h (1 Bft) W-NW 10,67 h 39,0 klux 175 W/m 13,1 C 24,1 C
01.07.2010 24,2 C 21,6 C 24,9 C 69 % 55 % 1015,2 hPa 0,0 l/m 5,4 km/h (1 Bft) SO 5,95 h 33,0 klux 149 W/m 13,5 C 24,9 C
02.07.2010 25,8 C 24,0 C 28,3 C 65 % 50 % 1014,8 hPa 0,0 l/m 0,8 km/h (0 Bft) SO 11,88 h 41,4 klux 187 W/m 13,4 C 28,3 C
03.07.2010 27,0 C 25,4 C 29,1 C 61 % 52 % 1015,0 hPa 0,0 l/m 9,8 km/h (2 Bft) SO 13,45 h 41,1 klux 184 W/m 14,8 C 29,1 C
04.07.2010 23,3 C 23,2 C 22,5 C 70 % 69 % 1017,0 hPa 0,0 l/m 6,6 km/h (2 Bft) W-NW 4,63 h 27,0 klux 120 W/m 16,1 C 22,5 C
05.07.2010 22,4 C 20,3 C 24,5 C 72 % 56 % 1016,6 hPa 0,0 l/m 6,6 km/h (2 Bft) W 5,97 h 27,8 klux 125 W/m 12,9 C 24,5 C
06.07.2010 17,0 C 17,1 C 16,7 C 71 % 68 % 1020,8 hPa 1,1 l/m 5,2 km/h (1 Bft) W-NW 3,80 h 24,1 klux 105 W/m 10,6 C 16,7 C
07.07.2010 19,3 C 18,8 C 21,9 C 66 % 51 % 1020,9 hPa 0,0 l/m 3,1 km/h (1 Bft) SO 14,55 h 43,8 klux 192 W/m 8,0 C 21,9 C
08.07.2010 24,4 C 23,4 C 26,0 C 60 % 49 % 1018,2 hPa 0,0 l/m 3,3 km/h (1 Bft) SO 13,80 h 43,0 klux 188 W/m 11,6 C 26,0 C
09.07.2010 26,7 C 25,5 C 28,5 C 57 % 47 % 1017,1 hPa 0,0 l/m 4,5 km/h (1 Bft) SO 13,80 h 42,6 klux 186 W/m 12,9 C 28,5 C
10.07.2010 29,7 C 27,5 C 30,0 C 59 % 53 % 1016,1 hPa 0,0 l/m 3,1 km/h (1 Bft) W 10,78 h 42,4 klux 171 W/m 16,2 C 30,0 C
11.07.2010 28,0 C 26,2 C 30,6 C 67 % 52 % 1014,4 hPa 0,0 l/m 0,6 km/h (0 Bft) W-SW 6,68 h 29,3 klux 129 W/m 17,3 C 30,6 C
12.07.2010 25,7 C 26,1 C 25,2 C 62 % 68 % 1011,0 hPa 3,6 l/m 9,3 km/h (2 Bft) SO 11,10 h 40,2 klux 175 W/m 16,5 C 25,2 C
13.07.2010 23,4 C 23,2 C 25,0 C 69 % 59 % 1009,9 hPa 0,7 l/m 2,0 km/h (1 Bft) SO 7,52 h 31,0 klux 134 W/m 14,6 C 25,0 C
14.07.2010 27,3 C 25,8 C 29,2 C 60 % 45 % 1005,8 hPa 9,4 l/m 4,0 km/h (1 Bft) SO 13,38 h 40,8 klux 176 W/m 12,8 C 29,2 C
15.07.2010 21,8 C 21,6 C 22,0 C 64 % 57 % 1013,1 hPa 3,2 l/m 9,6 km/h (2 Bft) SO 8,63 h 36,5 klux 161 W/m 11,1 C 22,0 C
16.07.2010 23,7 C 23,3 C 23,9 C 64 % 57 % 1013,9 hPa 0,0 l/m 5,4 km/h (2 Bft) SO 12,60 h 41,0 klux 179 W/m 12,8 C 23,9 C
17.07.2010 20,2 C 20,3 C 20,1 C 73 % 69 % 1018,3 hPa 0,0 l/m 5,9 km/h (2 Bft) SO 1,27 h 19,0 klux 79 W/m 14,2 C 20,1 C
18.07.2010 18,9 C 19,0 C 21,5 C 65 % 51 % 1025,3 hPa 0,0 l/m 2,2 km/h (1 Bft) NW 11,32 h 38,4 klux 156 W/m 8,7 C 21,5 C
19.07.2010 21,8 C 20,8 C 25,5 C 58 % 42 % 1021,5 hPa 0,0 l/m 0,3 km/h (0 Bft) SO 15,15 h 44,3 klux 188 W/m 6,5 C 25,5 C
20.07.2010 22,3 C 22,5 C 24,2 C 54 % 45 % 1013,8 hPa 0,0 l/m 6,6 km/h (2 Bft) SO 14,73 h 43,2 klux 182 W/m 8,5 C 24,2 C
21.07.2010 25,9 C 24,9 C 27,0 C 55 % 51 % 1006,6 hPa 0,0 l/m 2,3 km/h (1 Bft) SO 11,98 h 40,5 klux 173 W/m 11,6 C 27,0 C
22.07.2010 21,8 C 21,4 C 21,8 C 70 % 73 % 1011,8 hPa 4,7 l/m 8,7 km/h (2 Bft) W-SW 1,70 h 20,7 klux 92 W/m 15,6 C 21,8 C
23.07.2010 19,4 C 18,9 C 18,8 C 82 % 81 % 1014,8 hPa 1,4 l/m 4,3 km/h (1 Bft) W-NW 0,05 h 14,7 klux 65 W/m 16,3 C 18,8 C
24.07.2010 17,6 C 16,8 C 17,9 C 71 % 60 % 1016,4 hPa 0,0 l/m 15,7 km/h (3 Bft) W-NW 2,35 h 23,3 klux 102 W/m 8,7 C 17,9 C
25.07.2010 16,1 C 16,6 C 15,9 C 64 % 59 % 1014,0 hPa 0,0 l/m 3,2 km/h (1 Bft) W 10,35 h 38,5 klux 160 W/m 6,0 C 15,9 C
26.07.2010 17,8 C 16,6 C 17,9 C 76 % 75 % 1010,8 hPa 11,5 l/m 0,4 km/h (0 Bft) SO 2,00 h 18,5 klux 77 W/m 12,4 C 17,9 C
27.07.2010 19,0 C 18,4 C 19,0 C 79 % 70 % 1015,3 hPa 0,0 l/m 5,3 km/h (1 Bft) W-NW 5,42 h 28,9 klux 121 W/m 13,0 C 19,0 C
28.07.2010 18,0 C 16,6 C 18,6 C 86 % 75 % 1011,8 hPa 5,0 l/m 1,5 km/h (1 Bft) SO 3,17 h 17,6 klux 67 W/m 14,5 C 18,6 C
29.07.2010 15,6 C 15,4 C 15,6 C 83 % 78 % 1009,2 hPa 0,4 l/m 5,1 km/h (1 Bft) W-SW 3,10 h 24,8 klux 105 W/m 11,3 C 15,6 C
30.07.2010 17,8 C 17,0 C 17,9 C 83 % 66 % 1013,9 hPa 0,0 l/m 1,0 km/h (0 Bft) W-SW 1,65 h 18,9 klux 72 W/m 10,8 C 17,9 C
31.07.2010 19,5 C 18,2 C 21,8 C 76 % 54 % 1014,3 hPa 0,0 l/m 5,9 km/h (2 Bft) SO 5,88 h 29,7 klux 119 W/m 8,6 C 21,8 C
01.08.2010 22,3 C 21,5 C 23,1 C 75 % 68 % 1012,5 hPa 0,7 l/m 10,3 km/h (2 Bft) SO 4,22 h 27,8 klux 110 W/m 14,6 C 23,1 C
02.08.2010 20,5 C 19,3 C 20,8 C 76 % 71 % 1012,9 hPa 2,9 l/m 1,1 km/h (1 Bft) W 4,70 h 30,3 klux 124 W/m 13,2 C 20,8 C
03.08.2010 16,1 C 16,5 C 16,0 C 83 % 81 % 1013,5 hPa 1,1 l/m 1,8 km/h (1 Bft) W-NW 1,90 h 20,1 klux 78 W/m 12,7 C 16,0 C
04.08.2010 15,5 C 16,0 C 16,2 C 81 % 81 % 1008,4 hPa 5,0 l/m 9,6 km/h (2 Bft) SO 2,95 h 22,5 klux 87 W/m 11,6 C 16,2 C
05.08.2010 17,4 C 16,0 C 16,8 C 87 % 84 % 1007,8 hPa 7,9 l/m 2,5 km/h (1 Bft) W-NW 1,55 h 17,0 klux 73 W/m 14,7 C 16,8 C
06.08.2010 15,7 C 15,6 C 15,3 C 90 % 83 % 1016,1 hPa 2,5 l/m 7,9 km/h (2 Bft) W-NW 0,00 h 12,2 klux 49 W/m 13,2 C 15,3 C
07.08.2010 19,4 C 18,0 C 19,5 C 84 % 63 % 1015,5 hPa 0,0 l/m 3,1 km/h (1 Bft) W-NW 11,00 h 37,9 klux 144 W/m 9,8 C 19,5 C
08.08.2010 19,0 C 18,4 C 19,6 C 84 % 73 % 1013,5 hPa 37,8 l/m 6,8 km/h (2 Bft) SO 3,35 h 25,5 klux 94 W/m 13,8 C 19,6 C
09.08.2010 17,5 C 17,4 C 17,7 C 88 % 76 % 1015,9 hPa 4,0 l/m 1,1 km/h (1 Bft) NW 0,75 h 18,4 klux 70 W/m 13,7 C 17,7 C
10.08.2010 20,0 C 18,5 C 20,0 C 85 % 65 % 1013,2 hPa 0,0 l/m 4,1 km/h (1 Bft) SO 7,67 h 35,0 klux 134 W/m 11,4 C 20,0 C
11.08.2010 19,0 C 18,5 C 18,6 C 86 % 79 % 1012,2 hPa 2,5 l/m 3,1 km/h (1 Bft) SO 0,77 h 15,2 klux 55 W/m 14,3 C 18,6 C
12.08.2010 18,0 C 17,6 C 17,7 C 90 % 86 % 1011,8 hPa 36,7 l/m 5,3 km/h (1 Bft) NW 0,00 h 12,4 klux 47 W/m 16,2 C 17,7 C
13.08.2010 18,8 C 16,6 C 18,8 C 90 % 68 % 1015,8 hPa 0,0 l/m 1,0 km/h (0 Bft) SO 7,50 h 33,7 klux 127 W/m 11,7 C 18,8 C
14.08.2010 18,0 C 16,9 C 17,1 C 88 % 73 % 1016,4 hPa 0,0 l/m 3,2 km/h (1 Bft) N-NO 5,38 h 27,6 klux 99 W/m 12,1 C 17,1 C
15.08.2010 16,6 C 17,0 C 16,3 C 89 % 87 % 1009,9 hPa 5,8 l/m 5,6 km/h (2 Bft) NW 0,00 h 6,06 klux 21 W/m 14,2 C 16,3 C
16.08.2010 15,9 C 15,5 C 15,6 C 90 % 81 % 1008,1 hPa 2,2 l/m 9,4 km/h (2 Bft) SO 0,30 h 12,9 klux 48 W/m 12,2 C 15,6 C
17.08.2010 14,7 C 14,6 C 14,3 C 92 % 88 % 1005,7 hPa 15,1 l/m 5,6 km/h (2 Bft) SO 0,35 h 9,6 klux 34 W/m 13,1 C 14,3 C
18.08.2010 15,7 C 15,6 C 15,5 C 92 % 85 % 1006,4 hPa 5,4 l/m 4,9 km/h (1 Bft) SO 0,65 h 14,0 klux 51 W/m 12,9 C 15,5 C
19.08.2010 15,1 C 15,0 C 15,6 C 88 % 73 % 1015,9 hPa 0,4 l/m 4,1 km/h (1 Bft) SW 7,80 h 32,3 klux 111 W/m 9,6 C 15,6 C
20.08.2010 18,7 C 17,4 C 19,3 C 83 % 68 % 1019,9 hPa 0,0 l/m 3,0 km/h (1 Bft) SO 12,60 h 39,2 klux 138 W/m 10,3 C 19,3 C
21.08.2010 22,6 C 20,9 C 23,6 C 81 % 67 % 1020,4 hPa 0,0 l/m 3,4 km/h (1 Bft) S-SW 11,58 h 38,3 klux 134 W/m 14,2 C 23,6 C
22.08.2010 21,6 C 20,4 C 23,3 C 84 % 75 % 1013,3 hPa 5,4 l/m 2,2 km/h (1 Bft) SO 4,95 h 25,2 klux 86 W/m 16,2 C 23,3 C
23.08.2010 19,5 C 18,9 C 18,8 C 88 % 86 % 1002,8 hPa 4,7 l/m 11,8 km/h (2 Bft) SO 0,80 h 15,5 klux 55 W/m 16,8 C 18,8 C
24.08.2010 17,2 C 16,7 C 19,5 C 75 % 55 % 1007,0 hPa 0,0 l/m 9,9 km/h (2 Bft) SW 7,85 h 34,1 klux 113 W/m 8,7 C 19,5 C
25.08.2010 14,9 C 15,5 C 14,8 C 74 % 72 % 1014,1 hPa 0,0 l/m 3,5 km/h (1 Bft) SW 1,70 h 14,4 klux 45 W/m 8,6 C 14,8 C
26.08.2010 17,2 C 17,1 C 17,3 C 86 % 87 % 1006,8 hPa 15,5 l/m 14,8 km/h (3 Bft) SO 0,00 h 7,09 klux 23 W/m 15,7 C 17,3 C
27.08.2010 15,3 C 16,2 C 14,9 C 90 % 91 % 1002,3 hPa 28,2 l/m 12,5 km/h (2 Bft) SO 0,70 h 13,6 klux 43 W/m 14,1 C 14,9 C
28.08.2010 12,8 C 12,4 C 13,3 C 87 % 80 % 1014,0 hPa 5,4 l/m 2,2 km/h (1 Bft) W-SW 4,30 h 24,8 klux 86 W/m 9,8 C 13,3 C
29.08.2010 12,6 C 12,3 C 13,3 C 91 % 82 % 1008,1 hPa 19,1 l/m 11,4 km/h (2 Bft) SO 0,95 h 13,3 klux 47 W/m 10,3 C 13,3 C
30.08.2010 10,7 C 10,5 C 10,9 C 94 % 87 % 1009,8 hPa 7,2 l/m 13,8 km/h (3 Bft) W-NW 0,88 h 13,6 klux 44 W/m 9,4 C 10,9 C
31.08.2010 14,0 C 12,7 C 13,5 C 85 % 71 % 1020,0 hPa 0,4 l/m 12,2 km/h (2 Bft) W-NW 6,85 h 32,2 klux 106 W/m 7,9 C 13,5 C
01.09.2010 13,4 C 13,0 C 13,0 C 89 % 81 % 1019,1 hPa 2,2 l/m 3,0 km/h (1 Bft) W-NW 1,25 h 15,1 klux 47 W/m 10,5 C 13,0 C
02.09.2010 13,9 C 13,7 C 13,9 C 90 % 82 % 1018,3 hPa 0,0 l/m 2,3 km/h (1 Bft) NW 0,00 h 10,2 klux 34 W/m 11,1 C 13,9 C
03.09.2010 14,6 C 13,3 C 14,5 C 86 % 68 % 1019,7 hPa 0,4 l/m 5,1 km/h (1 Bft) N-NO 4,28 h 27,6 klux 90 W/m 8,5 C 14,5 C
04.09.2010 12,7 C 12,3 C 12,3 C 88 % 80 % 1020,4 hPa 4,0 l/m 3,6 km/h (1 Bft) SO 5,05 h 25,1 klux 77 W/m 8,8 C 12,3 C
05.09.2010 10,6 C 10,7 C 10,3 C 90 % 82 % 1022,9 hPa 0,7 l/m 3,4 km/h (1 Bft) NW 3,53 h 22,7 klux 69 W/m 7,3 C 10,3 C
06.09.2010 12,4 C 11,3 C 13,2 C 83 % 63 % 1018,6 hPa 0,0 l/m 17,5 km/h (3 Bft) O-SO 10,70 h 34,5 klux 99 W/m 4,0 C 13,2 C
07.09.2010 15,5 C 14,3 C 15,8 C 69 % 52 % 1008,7 hPa 0,0 l/m 20,1 km/h (4 Bft) SO 7,23 h 26,9 klux 81 W/m 4,2 C 15,8 C
08.09.2010 15,9 C 15,6 C 15,8 C 76 % 77 % 1006,3 hPa 5,4 l/m 7,3 km/h (2 Bft) SO 0,50 h 13,6 klux 42 W/m 11,1 C 15,8 C
09.09.2010 14,9 C 15,0 C 14,7 C 85 % 89 % 1012,6 hPa 6,1 l/m 2,9 km/h (1 Bft) SO 0,00 h 8,89 klux 27 W/m 13,1 C 14,7 C
10.09.2010 14,7 C 14,9 C 14,8 C 85 % 80 % 1020,2 hPa 0,0 l/m 0,1 km/h (0 Bft) SO 2,18 h 18,4 klux 56 W/m 10,8 C 14,8 C
11.09.2010 15,5 C 15,2 C 14,9 C 86 % 81 % 1019,4 hPa 0,0 l/m 3,8 km/h (1 Bft) SO 3,60 h 23,2 klux 65 W/m 11,1 C 14,9 C
12.09.2010 16,4 C 15,7 C 16,6 C 82 % 75 % 1018,6 hPa 0,0 l/m 12,8 km/h (3 Bft) SO 7,67 h 29,4 klux 81 W/m 10,7 C 16,6 C
13.09.2010 14,0 C 14,3 C 14,4 C 84 % 77 % 1023,1 hPa 0,7 l/m 2,8 km/h (1 Bft) W-NW 1,20 h 13,9 klux 37 W/m 10,1 C 14,4 C
14.09.2010 13,8 C 13,9 C 13,6 C 90 % 91 % 1014,4 hPa 31,3 l/m 12,5 km/h (2 Bft) SO 0,00 h 2,94 klux 8 W/m 13,0 C 13,6 C
15.09.2010 12,9 C 12,6 C 13,9 C 77 % 65 % 1007,3 hPa 6,1 l/m 11,7 km/h (2 Bft) S-SW 5,10 h 26,3 klux 71 W/m 7,7 C 13,9 C
16.09.2010 11,8 C 12,1 C 12,3 C 75 % 75 % 1007,9 hPa 3,2 l/m 3,0 km/h (1 Bft) S-SW 3,87 h 22,4 klux 59 W/m 7,3 C 12,3 C
17.09.2010 11,0 C 11,5 C 10,8 C 78 % 81 % 1011,3 hPa 1,1 l/m 5,3 km/h (1 Bft) SW 1,75 h 13,9 klux 36 W/m 7,7 C 10,6 C
18.09.2010 9,6 C 10,5 C 9,8 C 77 % 79 % 1016,8 hPa 0,0 l/m 1,7 km/h (1 Bft) W-SW 1,10 h 14,3 klux 39 W/m 5,6 C 9,8 C
19.09.2010 11,1 C 10,9 C 11,6 C 75 % 71 % 1016,7 hPa 0,4 l/m 7,9 km/h (2 Bft) SO 4,50 h 22,7 klux 60 W/m 4,6 C 11,6 C
20.09.2010 13,2 C 14,2 C 14,7 C 77 % 69 % 1015,2 hPa 0,0 l/m 8,3 km/h (2 Bft) SO 1,43 h 19,6 klux 50 W/m 8,0 C 14,7 C
21.09.2010 13,9 C 13,9 C 13,5 C 78 % 79 % 1020,8 hPa 0,0 l/m 3,4 km/h (1 Bft) SO 3,75 h 20,7 klux 54 W/m 9,1 C 13,5 C
22.09.2010 13,8 C 14,1 C 12,8 C 76 % 78 % 1019,8 hPa 0,0 l/m 4,9 km/h (1 Bft) SO 10,90 h 33,5 klux 82 W/m 7,3 C 12,8 C
23.09.2010 16,0 C 16,0 C 15,4 C 76 % 75 % 1010,7 hPa 0,0 l/m 5,8 km/h (2 Bft) SO 9,45 h 31,3 klux 77 W/m 9,4 C 15,4 C
24.09.2010 15,4 C 15,7 C 15,2 C 80 % 83 % 1000,5 hPa 1,1 l/m 6,6 km/h (2 Bft) SO 0,40 h 13,7 klux 34 W/m 12,0 C 15,2 C
25.09.2010 10,2 C 11,0 C 9,9 C 87 % 89 % 1004,5 hPa 10,1 l/m 8,9 km/h (2 Bft) W-NW 0,00 h 6,83 klux 17 W/m 8,6 C 9,9 C
26.09.2010 9,8 C 10,2 C 10,1 C 88 % 85 % 1007,6 hPa 0,4 l/m 0,0 km/h (0 Bft) W-NW 1,60 h 12,4 klux 28 W/m 7,4 C 10,1 C
27.09.2010 9,3 C 9,6 C 9,1 C 90 % 91 % 1008,6 hPa 41,4 l/m 0,1 km/h (0 Bft) SW 0,00 h 2,17 klux 5 W/m 8,4 C 9,1 C
28.09.2010 10,1 C 10,4 C 10,0 C 93 % 89 % 1015,2 hPa 2,2 l/m 11,2 km/h (2 Bft) W-NW 0,00 h 5,28 klux 13 W/m 9,1 C 9,4 C
29.09.2010 9,2 C 8,9 C 9,1 C 92 % 80 % 1020,2 hPa 0,0 l/m 0,9 km/h (0 Bft) W-NW 0,10 h 10,9 klux 25 W/m 6,2 C 9,1 C
30.09.2010 8,9 C 9,3 C 8,7 C 89 % 77 % 1016,9 hPa 0,0 l/m 2,9 km/h (1 Bft) SO 4,03 h 22,2 klux 50 W/m 4,5 C 8,7 C
01.10.2010 11,0 C 10,7 C 11,7 C 89 % 78 % 1014,4 hPa 0,0 l/m 0,0 km/h (0 Bft) SO 0,00 h 7,99 klux 18 W/m 7,8 C 11,7 C
02.10.2010 12,9 C 12,3 C 12,8 C 91 % 81 % 1013,5 hPa 0,7 l/m 12,8 km/h (3 Bft) SO 0,00 h 8,15 klux 17 W/m 9,8 C 12,8 C
03.10.2010 16,1 C 16,1 C 15,4 C 84 % 76 % 1008,4 hPa 0,0 l/m 8,9 km/h (2 Bft) SO 6,68 h 26,7 klux 57 W/m 10,9 C 15,4 C
04.10.2010 13,7 C 14,0 C 13,3 C 82 % 78 % 1004,7 hPa 0,0 l/m 6,4 km/h (2 Bft) SO 10,60 h 29,3 klux 62 W/m 8,8 C 13,3 C
05.10.2010 13,7 C 13,9 C 13,6 C 83 % 82 % 1008,1 hPa 0,0 l/m 2,5 km/h (1 Bft) SO 5,58 h 22,5 klux 46 W/m 9,9 C 13,6 C
06.10.2010 16,6 C 16,4 C 16,2 C 83 % 78 % 1014,0 hPa 0,0 l/m 8,3 km/h (2 Bft) SO 4,65 h 21,8 klux 47 W/m 11,7 C 16,2 C
07.10.2010 14,3 C 14,9 C 14,7 C 83 % 81 % 1021,0 hPa 0,0 l/m 0,3 km/h (0 Bft) O 4,85 h 19,9 klux 40 W/m 11,1 C 14,7 C
08.10.2010 12,8 C 13,0 C 12,6 C 75 % 73 % 1021,4 hPa 0,0 l/m 4,5 km/h (1 Bft) SO 8,35 h 25,9 klux 50 W/m 6,6 C 12,6 C
09.10.2010 9,8 C 9,8 C 9,9 C 69 % 72 % 1019,9 hPa 0,0 l/m 2,3 km/h (1 Bft) N-NO 7,30 h 26,4 klux 52 W/m 3,4 C 9,9 C
10.10.2010 7,0 C 7,5 C 7,9 C 70 % 72 % 1017,0 hPa 0,0 l/m 0,1 km/h (0 Bft) W-NW 10,43 h 28,5 klux 55 W/m 1,9 C 7,9 C
11.10.2010 6,3 C 7,1 C 6,8 C 66 % 74 % 1017,6 hPa 0,0 l/m 0,0 km/h (0 Bft) N-NO 10,27 h 28,5 klux 53 W/m 1,0 C 6,8 C
12.10.2010 4,3 C 4,3 C 4,6 C 74 % 82 % 1018,3 hPa 0,0 l/m 0,0 km/h (0 Bft) O-SO 5,05 h 20,1 klux 39 W/m 0,9 C 4,6 C
13.10.2010 4,6 C 5,4 C 5,0 C 71 % 76 % 1017,2 hPa 0,4 l/m 0,1 km/h (0 Bft) S-SW 9,97 h 27,1 klux 50 W/m 0,4 C 5,0 C
14.10.2010 5,7 C 5,2 C 5,7 C 78 % 88 % 1015,9 hPa 0,7 l/m 1,8 km/h (1 Bft) SO 0,00 h 7,62 klux 14 W/m 3,7 C 5,7 C
15.10.2010 9,3 C 9,6 C 9,4 C 85 % 87 % 1010,2 hPa 10,4 l/m 2,8 km/h (1 Bft) W-NW 0,00 h 8,39 klux 15 W/m 7,6 C 9,2 C
16.10.2010 5,4 C 5,8 C 5,3 C 87 % 87 % 1012,5 hPa 5,0 l/m 17,2 km/h (3 Bft) NW 0,00 h 6,14 klux 12 W/m 3,9 C 2,2 C
17.10.2010 4,5 C 5,2 C 4,5 C 85 % 82 % 1021,8 hPa 0,0 l/m 5,5 km/h (2 Bft) NW 3,40 h 13,7 klux 24 W/m 1,7 C 3,5 C
18.10.2010 4,0 C 3,6 C 4,3 C 86 % 82 % 1019,8 hPa 0,4 l/m 5,2 km/h (1 Bft) SO 4,42 h 17,7 klux 31 W/m 1,7 C 3,1 C
19.10.2010 6,2 C 6,3 C 6,0 C 88 % 88 % 1004,3 hPa 3,2 l/m 4,5 km/h (1 Bft) SO 0,85 h 4,45 klux 7 W/m 4,7 C 5,1 C
20.10.2010 5,2 C 5,2 C 5,4 C 85 % 83 % 1008,7 hPa 4,7 l/m 8,9 km/h (2 Bft) W-SW 1,28 h 9,9 klux 17 W/m 2,6 C 4,5 C
21.10.2010 3,3 C 4,0 C 4,0 C 80 % 76 % 1020,7 hPa 0,4 l/m 4,0 km/h (1 Bft) SW 0,40 h 4,20 klux 7 W/m -0,1 C 3,5 C
22.10.2010 5,3 C 5,3 C 5,6 C 81 % 76 % 1018,9 hPa 0,0 l/m 8,1 km/h (2 Bft) SO 0,00 h 8,97 klux 15 W/m 1,2 C 4,3 C
23.10.2010 6,5 C 6,3 C 6,6 C 78 % 72 % 1006,6 hPa 0,7 l/m 16,7 km/h (3 Bft) SO 6,75 h 21,4 klux 34 W/m 1,2 C 4,2 C
24.10.2010 4,7 C 5,8 C 5,0 C 75 % 82 % 1008,3 hPa 1,1 l/m 6,7 km/h (2 Bft) S-SO 0,55 h 7,12 klux 12 W/m 1,6 C 4,2 C
25.10.2010 3,3 C 3,3 C 3,9 C 76 % 83 % 1022,2 hPa 0,4 l/m 2,0 km/h (1 Bft) W 2,93 h 13,1 klux 20 W/m 0,1 C 3,9 C
26.10.2010 5,6 C 5,5 C 5,9 C 83 % 88 % 1027,6 hPa 1,8 l/m 0,0 km/h (0 Bft) SO 0,68 h 8,46 klux 13 W/m 3,8 C 5,9 C
27.10.2010 7,2 C 6,6 C 7,4 C 83 % 71 % 1022,9 hPa 0,0 l/m 10,5 km/h (2 Bft) SO 0,00 h 4,37 klux 7 W/m 1,9 C 5,5 C
28.10.2010 10,0 C 9,6 C 10,1 C 79 % 72 % 1019,1 hPa 0,4 l/m 7,8 km/h (2 Bft) SO 0,10 h 9,3 klux 15 W/m 4,4 C 9,5 C
29.10.2010 9,7 C 9,2 C 10,0 C 80 % 72 % 1010,4 hPa 0,0 l/m 11,5 km/h (2 Bft) SO 5,67 h 17,7 klux 27 W/m 3,7 C 10,0 C
30.10.2010 11,5 C 11,5 C 11,7 C 75 % 66 % 1005,2 hPa 0,0 l/m 8,5 km/h (2 Bft) SO 0,10 h 5,73 klux 8 W/m 4,1 C 11,7 C
31.10.2010 6,9 C 6,6 C 7,5 C 78 % 82 % 1004,3 hPa 0,0 l/m 1,8 km/h (1 Bft) O-SO 3,37 h 12,6 klux 17 W/m 2,9 C 7,5 C
01.11.2010 7,6 C 7,6 C 7,7 C 84 % 85 % 1010,3 hPa 0,0 l/m 8,6 km/h (2 Bft) W-NW 0,75 h 9,8 klux 14 W/m 5,1 C 7,0 C
02.11.2010 8,5 C 8,3 C 8,4 C 86 % 82 % 1013,8 hPa 0,0 l/m 8,6 km/h (2 Bft) SO 0,00 h 4,27 klux 6 W/m 5,1 C 7,1 C
03.11.2010 11,1 C 11,0 C 10,8 C 86 % 86 % 1013,1 hPa 8,3 l/m 9,2 km/h (2 Bft) SO 0,00 h 1,87 klux 2 W/m 8,4 C 10,8 C
04.11.2010 13,5 C 13,5 C 13,4 C 91 % 88 % 1017,0 hPa 5,0 l/m 18,5 km/h (3 Bft) S-SW 0,00 h 2,19 klux 3 W/m 12,0 C 13,4 C
05.11.2010 12,5 C 12,5 C 12,3 C 87 % 85 % 1017,1 hPa 1,8 l/m 23,9 km/h (4 Bft) SW 0,00 h 3,25 klux 5 W/m 9,8 C 12,3 C
06.11.2010 7,1 C 7,4 C 7,1 C 90 % 89 % 1010,6 hPa 19,4 l/m 1,0 km/h (0 Bft) W-SW 0,15 h 4,39 klux 6 W/m 5,7 C 7,1 C
07.11.2010 3,5 C 3,7 C 3,8 C 88 % 82 % 1003,2 hPa 7,6 l/m 1,4 km/h (1 Bft) N-NO 0,00 h 3,38 klux 4 W/m 1,1 C 3,5 C
08.11.2010 2,1 C 2,4 C 2,0 C 89 % 86 % 985,5 hPa 0,0 l/m 4,8 km/h (1 Bft) SO 0,00 h 6,58 klux 8 W/m -0,1 C 1,4 C
09.11.2010 4,3 C 4,2 C 4,4 C 90 % 85 % 981,9 hPa 0,4 l/m 3,0 km/h (1 Bft) SO 0,00 h 5,50 klux 7 W/m 1,6 C 3,9 C
10.11.2010 6,0 C 6,2 C 6,0 C 91 % 87 % 992,0 hPa 6,5 l/m 13,7 km/h (3 Bft) SO 0,00 h 4,45 klux 5 W/m 4,0 C 3,6 C
11.11.2010 4,9 C 4,5 C 5,2 C 90 % 78 % 997,0 hPa 7,6 l/m 29,1 km/h (5 Bft) SO 0,60 h 8,02 klux 10 W/m 0,9 C 0,9 C
12.11.2010 9,1 C 8,9 C 9,4 C 78 % 77 % 992,6 hPa 5,4 l/m 15,1 km/h (3 Bft) S-SW 2,25 h 10,8 klux 13 W/m 4,7 C 7,6 C
13.11.2010 10,4 C 10,5 C 10,3 C 91 % 90 % 996,5 hPa 41,8 l/m 4,0 km/h (1 Bft) S-SW 0,00 h 2,35 klux 3 W/m 9,2 C 10,1 C
14.11.2010 14,4 C 13,3 C 14,6 C 86 % 74 % 999,0 hPa 1,4 l/m 5,6 km/h (2 Bft) W 1,65 h 10,6 klux 12 W/m 8,5 C 14,6 C
15.11.2010 8,0 C 8,1 C 8,1 C 76 % 74 % 1014,4 hPa 0,0 l/m 8,0 km/h (2 Bft) W-NW 0,00 h 6,67 klux 7 W/m 2,9 C 7,0 C
16.11.2010 5,3 C 5,5 C 5,3 C 81 % 80 % 1020,2 hPa 0,0 l/m 6,5 km/h (2 Bft) NW 0,00 h 4,01 klux 4 W/m 1,5 C 4,5 C
17.11.2010 4,1 C 4,1 C 3,7 C 84 % 83 % 1012,4 hPa 0,4 l/m 5,9 km/h (2 Bft) N-NO 0,00 h 4,92 klux 6 W/m 0,8 C 2,3 C
18.11.2010 4,4 C 4,6 C 4,3 C 86 % 88 % 1010,6 hPa 5,4 l/m 0,0 km/h (0 Bft) O-SO 0,00 h 3,04 klux 3 W/m 2,3 C 4,3 C
19.11.2010 5,6 C 5,5 C 5,8 C 89 % 86 % 1015,6 hPa 0,7 l/m 4,8 km/h (1 Bft) SO 0,00 h 4,74 klux 5 W/m 3,3 C 4,8 C
20.11.2010 5,2 C 5,3 C 5,2 C 90 % 87 % 1015,6 hPa 0,0 l/m 0,0 km/h (0 Bft) SO 0,00 h 6,59 klux 7 W/m 2,9 C 5,2 C
21.11.2010 2,1 C 1,3 C 3,5 C 93 % 83 % 1010,0 hPa 0,4 l/m 10,5 km/h (2 Bft) N-NO 2,20 h 9,8 klux 9 W/m 0,1 C 1,2 C
22.11.2010 2,4 C 2,2 C 2,5 C 95 % 90 % 1000,0 hPa 17,6 l/m 21,6 km/h (4 Bft) W-NW 0,00 h 2,50 klux 3 W/m 1,4 C -2,3 C
23.11.2010 1,5 C 1,9 C 1,6 C 92 % 89 % 999,6 hPa 8,3 l/m 7,4 km/h (2 Bft) W-SW 0,00 h 2,03 klux 2 W/m 0,0 C -0,1 C
24.11.2010 -0,5 C -0,2 C -0,5 C 91 % 88 % 1004,9 hPa 1,8 l/m 2,9 km/h (1 Bft) W 0,05 h 4,03 klux 4 W/m -2,5 C -1,4 C
25.11.2010 0,1 C -0,1 C 0,3 C 93 % 91 % 1002,8 hPa 5,8 l/m 0,8 km/h (0 Bft) W-NW 0,00 h 3,56 klux 3 W/m -1,2 C 0,3 C
26.11.2010 -1,5 C -1,7 C -1,1 C 88 % 83 % 1004,4 hPa 0,0 l/m 0,2 km/h (0 Bft) W-NW 2,73 h 12,1 klux 12 W/m -4,1 C -1,1 C
27.11.2010 -5,6 C -5,4 C -5,4 C 89 % 85 % 1007,1 hPa 0,0 l/m 0,0 km/h (0 Bft) W-NW 1,35 h 9,4 klux 9 W/m -8,1 C -5,4 C
28.11.2010 -4,7 C -4,9 C -4,3 C 91 % 85 % 1007,8 hPa 0,0 l/m 0,4 km/h (0 Bft) W-NW 0,30 h 6,74 klux 6 W/m -7,3 C -4,3 C
29.11.2010 -2,5 C -2,5 C -2,2 C 87 % 80 % 1009,9 hPa 0,0 l/m 10,3 km/h (2 Bft) NW 0,00 h 4,03 klux 4 W/m -5,9 C -5,9 C
30.11.2010 -5,8 C -5,7 C -5,5 C 80 % 76 % 1016,3 hPa 0,0 l/m 8,9 km/h (2 Bft) N 0,55 h 7,42 klux 7 W/m -10,6 C -8,0 C
01.12.2010 -8,6 C -8,5 C -8,0 C 72 % 68 % 1010,3 hPa 0,0 l/m 9,0 km/h (2 Bft) N 2,20 h 9,8 klux 9 W/m -15,8 C -11,6 C
02.12.2010 -9,0 C -8,7 C -8,0 C 74 % 76 % 1009,0 hPa 0,0 l/m 4,1 km/h (1 Bft) W-NW 0,98 h 8,19 klux 8 W/m -14,6 C -9,9 C
03.12.2010 -9,7 C -9,7 C -7,7 C 77 % 77 % 1012,4 hPa 0,0 l/m 0,2 km/h (0 Bft) SW 3,90 h 11,8 klux 11 W/m -14,6 C -7,7 C
04.12.2010 -6,8 C -7,3 C -6,4 C 81 % 80 % 1017,5 hPa 0,0 l/m 13,6 km/h (3 Bft) SO 0,30 h 5,06 klux 4 W/m -11,4 C -10,5 C
05.12.2010 -1,3 C -1,1 C -1,2 C 87 % 89 % 1005,2 hPa 5,4 l/m 14,7 km/h (3 Bft) SO 0,00 h 3,47 klux 3 W/m -2,7 C -5,3 C
06.12.2010 -5,3 C -5,3 C -4,5 C 85 % 89 % 1003,2 hPa 0,0 l/m 0,5 km/h (0 Bft) SO 0,90 h 7,42 klux 6 W/m -7,0 C -4,6 C
07.12.2010 -8,4 C -9,4 C -6,9 C 84 % 87 % 1005,8 hPa 0,0 l/m 0,0 km/h (0 Bft) N 1,37 h 8,15 klux 7 W/m -11,1 C -6,9 C
08.12.2010 -3,1 C -3,0 C -2,7 C 87 % 89 % 1005,6 hPa 2,9 l/m 6,4 km/h (2 Bft) W-NW 0,00 h 2,72 klux 2 W/m -5,2 C -4,9 C
09.12.2010 -1,5 C -1,5 C -1,2 C 88 % 87 % 1015,6 hPa 1,8 l/m 7,5 km/h (2 Bft) W-SW 0,10 h 5,18 klux 5 W/m -3,8 C -3,5 C
10.12.2010 -2,7 C -3,1 C -1,6 C 85 % 85 % 1025,1 hPa 1,4 l/m 4,5 km/h (1 Bft) SO 1,90 h 9,00 klux 8 W/m -5,6 C -3,0 C
11.12.2010 2,8 C 2,5 C 2,8 C 93 % 89 % 1013,0 hPa 8,3 l/m 9,8 km/h (2 Bft) W-SW 0,00 h 3,50 klux 3 W/m 1,4 C 0,5 C
12.12.2010 0,4 C 0,7 C 0,6 C 88 % 85 % 1012,9 hPa 1,4 l/m 14,5 km/h (3 Bft) W-NW 0,05 h 5,56 klux 5 W/m -1,8 C -3,1 C
13.12.2010 -5,1 C -5,0 C -4,4 C 82 % 82 % 1022,8 hPa 0,0 l/m 4,2 km/h (1 Bft) NW 0,75 h 6,90 klux 6 W/m -8,7 C -5,9 C
14.12.2010 -4,7 C -4,4 C -4,2 C 85 % 84 % 1025,7 hPa 2,2 l/m 17,1 km/h (3 Bft) W-NW 0,25 h 6,58 klux 5 W/m -7,7 C -9,6 C
15.12.2010 -6,1 C -5,8 C -5,6 C 83 % 83 % 1025,0 hPa 0,7 l/m 12,7 km/h (3 Bft) W-NW 0,00 h 5,47 klux 5 W/m -9,6 C -10,5 C
16.12.2010 -4,7 C -4,5 C -4,4 C 85 % 84 % 1008,4 hPa 2,9 l/m 14,4 km/h (3 Bft) SO 0,77 h 6,10 klux 5 W/m -7,9 C -9,2 C
17.12.2010 -4,5 C -2,7 C -2,6 C 82 % 82 % 994,9 hPa 1,8 l/m 2,1 km/h (1 Bft) W-NW 0,00 h 5,20 klux 3 W/m -7,3 C -3,3 C
18.12.2010 -7,9 C -4,5 C -3,7 C 65 % 62 % 999,6 hPa 0,0 l/m 0,0 km/h (0 Bft) N 0,62 h 7,90 klux 4 W/m -18,4 C -3,7 C
19.12.2010 -4,8 C -5,5 C -3,9 C 85 % 84 % 997,3 hPa 1,8 l/m 2,4 km/h (1 Bft) SO 0,85 h 7,81 klux 5 W/m -7,8 C -4,7 C
20.12.2010 -6,5 C -6,0 C -5,9 C 85 % 87 % 1000,9 hPa 4,0 l/m 1,7 km/h (1 Bft) S-SW 0,00 h 6,46 klux 3 W/m -9,7 C -6,5 C
21.12.2010 -8,5 C -9,9 C -7,1 C 84 % 86 % 1007,6 hPa 1,1 l/m 0,0 km/h (0 Bft) NW 0,00 h 3,12 klux 3 W/m -11,9 C -7,1 C
22.12.2010 -2,4 C -2,3 C -2,0 C 87 % 88 % 1005,1 hPa 0,4 l/m 2,4 km/h (1 Bft) W-NW 0,00 h 3,49 klux 3 W/m -4,8 C -2,7 C
23.12.2010 -0,9 C -0,6 C -0,7 C 90 % 88 % 1000,7 hPa 3,6 l/m 4,0 km/h (1 Bft) N-NO 0,00 h 3,81 klux 3 W/m -2,6 C -1,9 C
24.12.2010 -2,4 C -1,9 C -2,2 C 87 % 86 % 1004,5 hPa 1,4 l/m 16,6 km/h (3 Bft) NW 0,00 h 4,04 klux 3 W/m -4,8 C -7,0 C
25.12.2010 -8,4 C -7,7 C -7,8 C 83 % 85 % 1019,9 hPa 0,0 l/m 12,3 km/h (2 Bft) NW 0,00 h 6,04 klux 5 W/m -12,0 C -12,3 C
26.12.2010 -8,5 C -9,2 C -7,3 C 83 % 85 % 1024,8 hPa 0,4 l/m 0,3 km/h (0 Bft) SO 0,00 h 5,22 klux 4 W/m -12,0 C -7,3 C
27.12.2010 -2,8 C -3,0 C -2,4 C 87 % 87 % 1021,7 hPa 0,4 l/m 1,0 km/h (0 Bft) SO 0,00 h 3,90 klux 3 W/m -5,3 C -2,5 C
28.12.2010 -7,3 C -7,3 C -5,6 C 85 % 83 % 1023,3 hPa 0,0 l/m 0,3 km/h (0 Bft) SO 3,75 h 10,4 klux 8 W/m -10,8 C -5,6 C
29.12.2010 -11,1 C -12,1 C -9,1 C 83 % 83 % 1027,0 hPa 0,0 l/m 0,1 km/h (0 Bft) O-SO 0,70 h 6,85 klux 6 W/m -15,4 C -9,1 C
30.12.2010 -3,2 C -3,2 C -2,6 C 87 % 86 % 1025,4 hPa 0,0 l/m 0,2 km/h (0 Bft) O-SO 0,10 h 6,12 klux 5 W/m -6,0 C -2,6 C
31.12.2010 -0,1 C -0,1 C 0,1 C 89 % 89 % 1023,1 hPa 1,1 l/m 1,3 km/h (1 Bft) SO 0,85 h 4,48 klux 3 W/m -1,4 C -0,1 C
Min-Datum 21.12.10 21.12.10 21.12.10 18.04.10 18.04.10 29.01.10 182 Tage 01.01.10 - - - - 23.04.10 26.01.10
Min-Zeit 01:51 02:33 01:06 16:54 16:03 18:46 - 00:00 - - - - 12:46 06:07
Minimum -19,5 C -20,7 C -17,5 C 0 % 0 % 978,4 hPa - 0,0 km/h (0 Bft) - - - - -60,0 C -22,4 C
Max-Datum 10.07.10 10.07.10 10.07.10 29.05.10 22.03.10 26.01.10 13.11.10 28.02.10 - 03.06.10 13.08.10 30.05.10 10.07.10 10.07.10
Max-Zeit 15:08 19:34 13:05 07:19 08:36 22:26 05:48 18:09 - 21:08 08:23 12:46 21:19 13:05
Maximum 42,5 C 32,5 C 45,6 C 98 % 94 % 1043,2 hPa 41,8 l/m 84,2 km/h
SO (9 Bft)
- 16,25 h 200 klux 867 W/m 26,5 C 45,6 C
Durchschnitt 8,1 C 7,9 C 8,7 C 77 % 74 % 1013,2 hPa #944,4 l/m 6,2 km/h (2 Bft) SO #1351:33 h 18,4 klux 59 W/m 2,8 C 7,9 C

Durchschnitt Minimum Temp.3,0 C
Durchschnitt Maximum Temp.13,8 C
Ulrich Pfrtner